sensor_id;sensor_type;location;lat;lon;timestamp;P1;durP1;ratioP1;P2;durP2;ratioP2
60241;SDS011;46103;52.076;113.488;2023-07-31T00:00:15;15.73;;;13.32;;
60241;SDS011;46103;52.076;113.488;2023-07-31T00:03:18;17.70;;;14.18;;
60241;SDS011;46103;52.076;113.488;2023-07-31T00:06:22;15.55;;;13.18;;
60241;SDS011;46103;52.076;113.488;2023-07-31T00:09:27;16.85;;;14.07;;
60241;SDS011;46103;52.076;113.488;2023-07-31T00:12:30;16.52;;;13.45;;
60241;SDS011;46103;52.076;113.488;2023-07-31T00:15:34;17.00;;;13.10;;
60241;SDS011;46103;52.076;113.488;2023-07-31T00:18:37;17.80;;;13.88;;
60241;SDS011;46103;52.076;113.488;2023-07-31T00:21:41;16.38;;;14.48;;
60241;SDS011;46103;52.076;113.488;2023-07-31T00:24:45;16.20;;;13.05;;
60241;SDS011;46103;52.076;113.488;2023-07-31T00:27:49;15.63;;;13.80;;
60241;SDS011;46103;52.076;113.488;2023-07-31T00:30:52;15.93;;;14.02;;
60241;SDS011;46103;52.076;113.488;2023-07-31T00:37:03;15.50;;;13.98;;
60241;SDS011;46103;52.076;113.488;2023-07-31T00:40:07;16.48;;;14.38;;
60241;SDS011;46103;52.076;113.488;2023-07-31T00:43:11;15.00;;;13.23;;
60241;SDS011;46103;52.076;113.488;2023-07-31T00:46:15;15.40;;;13.73;;
60241;SDS011;46103;52.076;113.488;2023-07-31T00:49:20;16.10;;;13.13;;
60241;SDS011;46103;52.076;113.488;2023-07-31T00:52:25;16.77;;;15.07;;
60241;SDS011;46103;52.076;113.488;2023-07-31T00:55:30;16.20;;;14.35;;
60241;SDS011;46103;52.076;113.488;2023-07-31T00:58:34;16.10;;;14.27;;
60241;SDS011;46103;52.076;113.488;2023-07-31T01:01:38;16.23;;;14.50;;
60241;SDS011;46103;52.076;113.488;2023-07-31T01:04:42;16.05;;;14.20;;
60241;SDS011;46103;52.076;113.488;2023-07-31T01:07:57;15.82;;;14.25;;
60241;SDS011;46103;52.076;113.488;2023-07-31T01:11:18;16.55;;;14.85;;
60241;SDS011;46103;52.076;113.488;2023-07-31T01:14:29;17.67;;;15.15;;
60241;SDS011;46103;52.076;113.488;2023-07-31T01:17:34;19.08;;;16.48;;
60241;SDS011;46103;52.076;113.488;2023-07-31T01:20:39;17.75;;;15.95;;
60241;SDS011;46103;52.076;113.488;2023-07-31T01:27:12;17.20;;;15.50;;
60241;SDS011;46103;52.076;113.488;2023-07-31T01:30:22;19.20;;;16.05;;
60241;SDS011;46103;52.076;113.488;2023-07-31T01:33:31;16.85;;;14.38;;
60241;SDS011;46103;52.076;113.488;2023-07-31T01:36:37;17.17;;;14.65;;
60241;SDS011;46103;52.076;113.488;2023-07-31T01:39:43;16.15;;;14.38;;
60241;SDS011;46103;52.076;113.488;2023-07-31T01:42:48;16.05;;;14.35;;
60241;SDS011;46103;52.076;113.488;2023-07-31T01:45:53;16.83;;;14.18;;
60241;SDS011;46103;52.076;113.488;2023-07-31T01:48:58;16.00;;;14.32;;
60241;SDS011;46103;52.076;113.488;2023-07-31T01:52:02;15.98;;;14.48;;
60241;SDS011;46103;52.076;113.488;2023-07-31T01:55:06;15.73;;;14.13;;
60241;SDS011;46103;52.076;113.488;2023-07-31T01:58:10;16.52;;;14.88;;
60241;SDS011;46103;52.076;113.488;2023-07-31T02:01:16;15.90;;;14.20;;
60241;SDS011;46103;52.076;113.488;2023-07-31T02:04:20;14.68;;;13.02;;
60241;SDS011;46103;52.076;113.488;2023-07-31T02:07:25;15.10;;;13.18;;
60241;SDS011;46103;52.076;113.488;2023-07-31T02:10:29;14.93;;;13.50;;
60241;SDS011;46103;52.076;113.488;2023-07-31T02:13:34;15.68;;;14.07;;
60241;SDS011;46103;52.076;113.488;2023-07-31T02:16:39;15.90;;;14.13;;
60241;SDS011;46103;52.076;113.488;2023-07-31T02:19:46;14.52;;;13.13;;
60241;SDS011;46103;52.076;113.488;2023-07-31T02:22:53;15.55;;;13.45;;
60241;SDS011;46103;52.076;113.488;2023-07-31T02:25:58;13.98;;;12.18;;
60241;SDS011;46103;52.076;113.488;2023-07-31T02:29:02;15.68;;;14.18;;
60241;SDS011;46103;52.076;113.488;2023-07-31T02:32:08;13.73;;;12.45;;
60241;SDS011;46103;52.076;113.488;2023-07-31T02:35:15;14.23;;;12.90;;
60241;SDS011;46103;52.076;113.488;2023-07-31T02:38:22;13.18;;;11.85;;
60241;SDS011;46103;52.076;113.488;2023-07-31T02:41:27;12.85;;;11.55;;
60241;SDS011;46103;52.076;113.488;2023-07-31T02:44:32;12.85;;;11.55;;
60241;SDS011;46103;52.076;113.488;2023-07-31T02:47:36;14.80;;;13.40;;
60241;SDS011;46103;52.076;113.488;2023-07-31T02:50:42;13.00;;;11.73;;
60241;SDS011;46103;52.076;113.488;2023-07-31T02:53:47;12.80;;;11.55;;
60241;SDS011;46103;52.076;113.488;2023-07-31T02:56:55;13.60;;;12.15;;
60241;SDS011;46103;52.076;113.488;2023-07-31T02:59:59;11.00;;;9.90;;
60241;SDS011;46103;52.076;113.488;2023-07-31T03:03:04;12.70;;;11.50;;
60241;SDS011;46103;52.076;113.488;2023-07-31T03:06:09;12.55;;;10.70;;
60241;SDS011;46103;52.076;113.488;2023-07-31T03:09:15;14.80;;;13.27;;
60241;SDS011;46103;52.076;113.488;2023-07-31T03:12:20;13.65;;;12.23;;
60241;SDS011;46103;52.076;113.488;2023-07-31T03:15:28;15.55;;;12.25;;
60241;SDS011;46103;52.076;113.488;2023-07-31T03:18:32;15.55;;;12.38;;
60241;SDS011;46103;52.076;113.488;2023-07-31T03:21:38;14.15;;;11.65;;
60241;SDS011;46103;52.076;113.488;2023-07-31T03:24:43;14.68;;;11.80;;
60241;SDS011;46103;52.076;113.488;2023-07-31T03:28:01;15.00;;;12.20;;
60241;SDS011;46103;52.076;113.488;2023-07-31T03:31:06;15.48;;;12.15;;
60241;SDS011;46103;52.076;113.488;2023-07-31T03:34:15;13.70;;;12.27;;
60241;SDS011;46103;52.076;113.488;2023-07-31T03:37:22;15.90;;;12.75;;
60241;SDS011;46103;52.076;113.488;2023-07-31T03:40:28;15.20;;;12.55;;
60241;SDS011;46103;52.076;113.488;2023-07-31T03:43:33;14.90;;;11.27;;
60241;SDS011;46103;52.076;113.488;2023-07-31T03:46:37;15.02;;;11.82;;
60241;SDS011;46103;52.076;113.488;2023-07-31T03:49:41;13.60;;;11.65;;
60241;SDS011;46103;52.076;113.488;2023-07-31T03:52:46;12.40;;;11.15;;
60241;SDS011;46103;52.076;113.488;2023-07-31T03:55:49;14.45;;;11.07;;
60241;SDS011;46103;52.076;113.488;2023-07-31T03:58:52;12.93;;;11.45;;
60241;SDS011;46103;52.076;113.488;2023-07-31T04:01:56;12.55;;;11.25;;
60241;SDS011;46103;52.076;113.488;2023-07-31T04:05:00;12.30;;;11.10;;
60241;SDS011;46103;52.076;113.488;2023-07-31T04:08:03;11.88;;;10.35;;
60241;SDS011;46103;52.076;113.488;2023-07-31T04:11:07;11.30;;;10.05;;
60241;SDS011;46103;52.076;113.488;2023-07-31T04:14:11;13.13;;;11.23;;
60241;SDS011;46103;52.076;113.488;2023-07-31T04:17:15;13.02;;;11.63;;
60241;SDS011;46103;52.076;113.488;2023-07-31T04:20:20;14.95;;;11.15;;
60241;SDS011;46103;52.076;113.488;2023-07-31T04:23:24;12.85;;;11.55;;
60241;SDS011;46103;52.076;113.488;2023-07-31T04:26:28;14.80;;;11.70;;
60241;SDS011;46103;52.076;113.488;2023-07-31T04:29:32;12.63;;;11.35;;
60241;SDS011;46103;52.076;113.488;2023-07-31T04:32:35;12.20;;;11.02;;
60241;SDS011;46103;52.076;113.488;2023-07-31T04:35:39;13.68;;;11.40;;
60241;SDS011;46103;52.076;113.488;2023-07-31T04:38:43;11.98;;;10.77;;
60241;SDS011;46103;52.076;113.488;2023-07-31T04:41:47;11.82;;;10.82;;
60241;SDS011;46103;52.076;113.488;2023-07-31T04:44:51;11.93;;;10.73;;
60241;SDS011;46103;52.076;113.488;2023-07-31T04:47:56;12.77;;;10.77;;
60241;SDS011;46103;52.076;113.488;2023-07-31T04:51:00;10.52;;;9.60;;
60241;SDS011;46103;52.076;113.488;2023-07-31T04:54:05;11.65;;;10.50;;
60241;SDS011;46103;52.076;113.488;2023-07-31T04:57:09;11.52;;;10.18;;
60241;SDS011;46103;52.076;113.488;2023-07-31T05:00:13;11.45;;;9.82;;
60241;SDS011;46103;52.076;113.488;2023-07-31T05:03:17;9.50;;;7.57;;
60241;SDS011;46103;52.076;113.488;2023-07-31T05:06:22;8.93;;;6.97;;
60241;SDS011;46103;52.076;113.488;2023-07-31T05:09:26;10.10;;;5.88;;
60241;SDS011;46103;52.076;113.488;2023-07-31T05:12:30;8.50;;;6.88;;
60241;SDS011;46103;52.076;113.488;2023-07-31T05:15:34;8.15;;;6.45;;
60241;SDS011;46103;52.076;113.488;2023-07-31T05:18:37;10.73;;;6.97;;
60241;SDS011;46103;52.076;113.488;2023-07-31T05:21:42;8.05;;;6.70;;
60241;SDS011;46103;52.076;113.488;2023-07-31T05:24:46;8.00;;;7.20;;
60241;SDS011;46103;52.076;113.488;2023-07-31T05:27:50;8.63;;;7.13;;
60241;SDS011;46103;52.076;113.488;2023-07-31T05:30:58;8.30;;;7.10;;
60241;SDS011;46103;52.076;113.488;2023-07-31T05:34:08;8.15;;;7.30;;
60241;SDS011;46103;52.076;113.488;2023-07-31T05:37:12;8.18;;;7.03;;
60241;SDS011;46103;52.076;113.488;2023-07-31T05:40:16;8.75;;;7.32;;
60241;SDS011;46103;52.076;113.488;2023-07-31T05:43:31;10.35;;;8.23;;
60241;SDS011;46103;52.076;113.488;2023-07-31T05:46:52;9.00;;;6.68;;
60241;SDS011;46103;52.076;113.488;2023-07-31T05:50:37;10.98;;;9.13;;
60241;SDS011;46103;52.076;113.488;2023-07-31T05:54:07;8.95;;;7.18;;
60241;SDS011;46103;52.076;113.488;2023-07-31T05:57:34;8.27;;;7.25;;
60241;SDS011;46103;52.076;113.488;2023-07-31T06:01:16;7.95;;;7.18;;
60241;SDS011;46103;52.076;113.488;2023-07-31T06:05:02;8.55;;;7.75;;
60241;SDS011;46103;52.076;113.488;2023-07-31T06:08:26;8.43;;;7.05;;
60241;SDS011;46103;52.076;113.488;2023-07-31T06:12:10;10.35;;;9.23;;
60241;SDS011;46103;52.076;113.488;2023-07-31T06:15:39;11.05;;;9.75;;
60241;SDS011;46103;52.076;113.488;2023-07-31T06:18:44;9.40;;;8.45;;
60241;SDS011;46103;52.076;113.488;2023-07-31T06:21:51;10.80;;;9.43;;
60241;SDS011;46103;52.076;113.488;2023-07-31T06:24:58;9.57;;;8.52;;
60241;SDS011;46103;52.076;113.488;2023-07-31T06:28:08;11.43;;;9.68;;
60241;SDS011;46103;52.076;113.488;2023-07-31T06:31:13;9.13;;;8.32;;
60241;SDS011;46103;52.076;113.488;2023-07-31T06:34:23;10.07;;;8.93;;
60241;SDS011;46103;52.076;113.488;2023-07-31T06:38:27;10.75;;;9.32;;
60241;SDS011;46103;52.076;113.488;2023-07-31T06:41:33;11.15;;;10.15;;
60241;SDS011;46103;52.076;113.488;2023-07-31T06:44:44;11.95;;;9.95;;
60241;SDS011;46103;52.076;113.488;2023-07-31T06:47:48;10.52;;;9.52;;
60241;SDS011;46103;52.076;113.488;2023-07-31T06:50:58;11.13;;;9.23;;
60241;SDS011;46103;52.076;113.488;2023-07-31T06:54:01;11.13;;;9.95;;
60241;SDS011;46103;52.076;113.488;2023-07-31T06:57:09;14.40;;;11.70;;
60241;SDS011;46103;52.076;113.488;2023-07-31T07:00:14;12.63;;;10.77;;
60241;SDS011;46103;52.076;113.488;2023-07-31T07:03:33;12.70;;;11.45;;
60241;SDS011;46103;52.076;113.488;2023-07-31T07:06:52;11.48;;;10.45;;
60241;SDS011;46103;52.076;113.488;2023-07-31T07:09:59;13.07;;;11.85;;
60241;SDS011;46103;52.076;113.488;2023-07-31T07:13:05;11.35;;;10.32;;
60241;SDS011;46103;52.076;113.488;2023-07-31T07:16:14;11.43;;;10.32;;
60241;SDS011;46103;52.076;113.488;2023-07-31T07:19:20;11.25;;;10.15;;
60241;SDS011;46103;52.076;113.488;2023-07-31T07:22:27;11.70;;;9.88;;
60241;SDS011;46103;52.076;113.488;2023-07-31T07:25:33;10.52;;;9.52;;
60241;SDS011;46103;52.076;113.488;2023-07-31T07:28:42;11.00;;;9.90;;
60241;SDS011;46103;52.076;113.488;2023-07-31T07:31:50;10.85;;;9.80;;
60241;SDS011;46103;52.076;113.488;2023-07-31T07:35:10;10.48;;;9.43;;
60241;SDS011;46103;52.076;113.488;2023-07-31T07:38:16;9.95;;;9.10;;
60241;SDS011;46103;52.076;113.488;2023-07-31T07:41:25;9.45;;;8.57;;
60241;SDS011;46103;52.076;113.488;2023-07-31T07:44:54;11.32;;;9.18;;
60241;SDS011;46103;52.076;113.488;2023-07-31T07:48:02;11.40;;;10.20;;
60241;SDS011;46103;52.076;113.488;2023-07-31T07:51:08;10.88;;;8.45;;
60241;SDS011;46103;52.076;113.488;2023-07-31T07:54:28;10.38;;;8.95;;
60241;SDS011;46103;52.076;113.488;2023-07-31T08:00:41;10.68;;;9.77;;
60241;SDS011;46103;52.076;113.488;2023-07-31T08:03:52;9.38;;;8.45;;
60241;SDS011;46103;52.076;113.488;2023-07-31T08:06:59;9.93;;;9.02;;
60241;SDS011;46103;52.076;113.488;2023-07-31T08:10:18;12.88;;;11.77;;
60241;SDS011;46103;52.076;113.488;2023-07-31T08:13:24;11.95;;;10.88;;
60241;SDS011;46103;52.076;113.488;2023-07-31T08:16:29;11.43;;;10.32;;
60241;SDS011;46103;52.076;113.488;2023-07-31T08:19:35;12.75;;;11.65;;
60241;SDS011;46103;52.076;113.488;2023-07-31T08:22:41;12.95;;;11.85;;
60241;SDS011;46103;52.076;113.488;2023-07-31T08:25:49;12.77;;;11.68;;
60241;SDS011;46103;52.076;113.488;2023-07-31T08:28:54;12.55;;;11.65;;
60241;SDS011;46103;52.076;113.488;2023-07-31T08:32:03;13.75;;;12.55;;
60241;SDS011;46103;52.076;113.488;2023-07-31T08:35:07;12.73;;;11.63;;
60241;SDS011;46103;52.076;113.488;2023-07-31T08:38:21;11.68;;;10.57;;
60241;SDS011;46103;52.076;113.488;2023-07-31T08:42:12;12.02;;;10.82;;
60241;SDS011;46103;52.076;113.488;2023-07-31T08:45:20;13.60;;;12.27;;
60241;SDS011;46103;52.076;113.488;2023-07-31T08:48:27;12.68;;;11.32;;
60241;SDS011;46103;52.076;113.488;2023-07-31T08:51:36;14.18;;;12.52;;
60241;SDS011;46103;52.076;113.488;2023-07-31T08:54:40;14.02;;;12.70;;
60241;SDS011;46103;52.076;113.488;2023-07-31T08:57:44;15.52;;;14.40;;
60241;SDS011;46103;52.076;113.488;2023-07-31T09:00:49;18.23;;;16.85;;
60241;SDS011;46103;52.076;113.488;2023-07-31T09:03:56;18.23;;;16.92;;
60241;SDS011;46103;52.076;113.488;2023-07-31T09:07:04;21.98;;;20.60;;
60241;SDS011;46103;52.076;113.488;2023-07-31T09:10:09;24.73;;;23.33;;
60241;SDS011;46103;52.076;113.488;2023-07-31T09:13:13;25.48;;;23.85;;
60241;SDS011;46103;52.076;113.488;2023-07-31T09:16:17;23.83;;;22.42;;
60241;SDS011;46103;52.076;113.488;2023-07-31T09:19:25;23.75;;;22.33;;
60241;SDS011;46103;52.076;113.488;2023-07-31T09:22:34;26.02;;;24.77;;
60241;SDS011;46103;52.076;113.488;2023-07-31T09:25:38;20.63;;;19.27;;
60241;SDS011;46103;52.076;113.488;2023-07-31T09:28:44;20.20;;;19.00;;
60241;SDS011;46103;52.076;113.488;2023-07-31T09:31:47;21.05;;;19.70;;
60241;SDS011;46103;52.076;113.488;2023-07-31T09:34:51;13.93;;;12.82;;
60241;SDS011;46103;52.076;113.488;2023-07-31T09:37:56;13.55;;;12.35;;
60241;SDS011;46103;52.076;113.488;2023-07-31T09:41:17;15.27;;;14.07;;
60241;SDS011;46103;52.076;113.488;2023-07-31T09:44:38;15.55;;;12.65;;
60241;SDS011;46103;52.076;113.488;2023-07-31T09:47:57;13.68;;;12.45;;
60241;SDS011;46103;52.076;113.488;2023-07-31T09:51:04;14.27;;;12.88;;
60241;SDS011;46103;52.076;113.488;2023-07-31T09:54:27;13.15;;;10.65;;
60241;SDS011;46103;52.076;113.488;2023-07-31T09:59:40;11.43;;;10.32;;
60241;SDS011;46103;52.076;113.488;2023-07-31T10:03:20;11.10;;;9.45;;
60241;SDS011;46103;52.076;113.488;2023-07-31T10:06:46;10.95;;;9.80;;
60241;SDS011;46103;52.076;113.488;2023-07-31T10:09:54;12.90;;;8.23;;
60241;SDS011;46103;52.076;113.488;2023-07-31T10:13:02;10.13;;;8.15;;
60241;SDS011;46103;52.076;113.488;2023-07-31T10:16:09;12.00;;;8.80;;
60241;SDS011;46103;52.076;113.488;2023-07-31T10:19:13;8.30;;;7.47;;
60241;SDS011;46103;52.076;113.488;2023-07-31T10:22:18;7.25;;;6.55;;
60241;SDS011;46103;52.076;113.488;2023-07-31T10:25:27;8.88;;;6.47;;
60241;SDS011;46103;52.076;113.488;2023-07-31T10:28:32;8.35;;;6.00;;
60241;SDS011;46103;52.076;113.488;2023-07-31T10:31:37;8.05;;;6.30;;
60241;SDS011;46103;52.076;113.488;2023-07-31T10:34:42;9.55;;;8.55;;
60241;SDS011;46103;52.076;113.488;2023-07-31T10:37:47;9.48;;;7.43;;
60241;SDS011;46103;52.076;113.488;2023-07-31T10:40:57;8.25;;;6.82;;
60241;SDS011;46103;52.076;113.488;2023-07-31T10:48:58;11.35;;;7.53;;
60241;SDS011;46103;52.076;113.488;2023-07-31T10:58:19;8.45;;;6.28;;
60241;SDS011;46103;52.076;113.488;2023-07-31T11:02:23;13.82;;;7.70;;
60241;SDS011;46103;52.076;113.488;2023-07-31T11:13:27;9.02;;;6.65;;
60241;SDS011;46103;52.076;113.488;2023-07-31T11:17:07;9.80;;;7.28;;
60241;SDS011;46103;52.076;113.488;2023-07-31T11:20:11;8.23;;;6.88;;
60241;SDS011;46103;52.076;113.488;2023-07-31T11:23:15;8.35;;;6.65;;
60241;SDS011;46103;52.076;113.488;2023-07-31T11:26:21;8.52;;;6.22;;
60241;SDS011;46103;52.076;113.488;2023-07-31T11:29:30;7.55;;;5.75;;
60241;SDS011;46103;52.076;113.488;2023-07-31T11:32:35;9.30;;;6.28;;
60241;SDS011;46103;52.076;113.488;2023-07-31T11:35:44;10.27;;;7.50;;
60241;SDS011;46103;52.076;113.488;2023-07-31T11:39:07;9.18;;;7.30;;
60241;SDS011;46103;52.076;113.488;2023-07-31T11:42:15;7.35;;;6.25;;
60241;SDS011;46103;52.076;113.488;2023-07-31T11:45:20;11.90;;;7.75;;
60241;SDS011;46103;52.076;113.488;2023-07-31T11:48:28;9.85;;;6.57;;
60241;SDS011;46103;52.076;113.488;2023-07-31T11:51:32;8.95;;;6.78;;
60241;SDS011;46103;52.076;113.488;2023-07-31T11:54:36;9.20;;;7.35;;
60241;SDS011;46103;52.076;113.488;2023-07-31T11:57:42;9.57;;;7.35;;
60241;SDS011;46103;52.076;113.488;2023-07-31T12:00:49;11.82;;;7.28;;
60241;SDS011;46103;52.076;113.488;2023-07-31T12:03:55;12.77;;;8.52;;
60241;SDS011;46103;52.076;113.488;2023-07-31T12:07:00;8.95;;;7.40;;
60241;SDS011;46103;52.076;113.488;2023-07-31T12:10:05;13.02;;;7.70;;
60241;SDS011;46103;52.076;113.488;2023-07-31T12:13:10;17.58;;;10.75;;
60241;SDS011;46103;52.076;113.488;2023-07-31T12:16:17;17.08;;;13.00;;
60241;SDS011;46103;52.076;113.488;2023-07-31T12:19:21;18.67;;;11.20;;
60241;SDS011;46103;52.076;113.488;2023-07-31T12:22:26;16.00;;;9.93;;
60241;SDS011;46103;52.076;113.488;2023-07-31T12:25:33;13.35;;;9.68;;
60241;SDS011;46103;52.076;113.488;2023-07-31T12:28:50;13.43;;;8.60;;
60241;SDS011;46103;52.076;113.488;2023-07-31T12:31:58;14.82;;;10.70;;
60241;SDS011;46103;52.076;113.488;2023-07-31T12:35:06;13.52;;;9.75;;
60241;SDS011;46103;52.076;113.488;2023-07-31T12:38:11;13.18;;;9.27;;
60241;SDS011;46103;52.076;113.488;2023-07-31T12:41:17;15.07;;;9.93;;
60241;SDS011;46103;52.076;113.488;2023-07-31T12:44:23;15.45;;;10.27;;
60241;SDS011;46103;52.076;113.488;2023-07-31T12:47:27;12.70;;;9.55;;
60241;SDS011;46103;52.076;113.488;2023-07-31T12:50:30;15.43;;;9.93;;
60241;SDS011;46103;52.076;113.488;2023-07-31T12:53:35;13.30;;;10.20;;
60241;SDS011;46103;52.076;113.488;2023-07-31T12:56:40;13.80;;;11.35;;
60241;SDS011;46103;52.076;113.488;2023-07-31T12:59:44;13.70;;;10.13;;
60241;SDS011;46103;52.076;113.488;2023-07-31T13:02:48;14.48;;;10.35;;
60241;SDS011;46103;52.076;113.488;2023-07-31T13:05:52;11.68;;;9.10;;
60241;SDS011;46103;52.076;113.488;2023-07-31T13:08:56;17.20;;;11.07;;
60241;SDS011;46103;52.076;113.488;2023-07-31T13:12:00;12.30;;;10.00;;
60241;SDS011;46103;52.076;113.488;2023-07-31T13:15:04;12.38;;;9.50;;
60241;SDS011;46103;52.076;113.488;2023-07-31T13:18:09;13.07;;;9.48;;
60241;SDS011;46103;52.076;113.488;2023-07-31T13:21:13;14.52;;;9.23;;
60241;SDS011;46103;52.076;113.488;2023-07-31T13:24:17;13.25;;;9.45;;
60241;SDS011;46103;52.076;113.488;2023-07-31T13:27:21;16.48;;;9.15;;
60241;SDS011;46103;52.076;113.488;2023-07-31T13:30:25;13.75;;;9.52;;
60241;SDS011;46103;52.076;113.488;2023-07-31T13:33:30;13.30;;;8.80;;
60241;SDS011;46103;52.076;113.488;2023-07-31T13:36:40;11.23;;;8.85;;
60241;SDS011;46103;52.076;113.488;2023-07-31T13:39:45;12.88;;;9.50;;
60241;SDS011;46103;52.076;113.488;2023-07-31T13:42:49;12.20;;;8.77;;
60241;SDS011;46103;52.076;113.488;2023-07-31T13:45:53;10.77;;;7.93;;
60241;SDS011;46103;52.076;113.488;2023-07-31T13:48:58;13.65;;;10.90;;
60241;SDS011;46103;52.076;113.488;2023-07-31T13:52:02;13.85;;;8.63;;
60241;SDS011;46103;52.076;113.488;2023-07-31T13:55:07;11.85;;;8.63;;
60241;SDS011;46103;52.076;113.488;2023-07-31T13:58:10;9.60;;;7.88;;
60241;SDS011;46103;52.076;113.488;2023-07-31T14:01:17;12.02;;;9.00;;
60241;SDS011;46103;52.076;113.488;2023-07-31T14:04:23;12.50;;;8.82;;
60241;SDS011;46103;52.076;113.488;2023-07-31T14:07:31;11.50;;;9.02;;
60241;SDS011;46103;52.076;113.488;2023-07-31T14:10:38;11.63;;;8.98;;
60241;SDS011;46103;52.076;113.488;2023-07-31T14:13:45;11.98;;;8.88;;
60241;SDS011;46103;52.076;113.488;2023-07-31T14:16:50;12.80;;;9.00;;
60241;SDS011;46103;52.076;113.488;2023-07-31T14:23:05;12.93;;;9.48;;
60241;SDS011;46103;52.076;113.488;2023-07-31T14:26:10;14.27;;;9.27;;
60241;SDS011;46103;52.076;113.488;2023-07-31T14:29:29;13.00;;;9.20;;
60241;SDS011;46103;52.076;113.488;2023-07-31T14:32:35;15.40;;;10.60;;
60241;SDS011;46103;52.076;113.488;2023-07-31T14:35:40;16.42;;;12.90;;
60241;SDS011;46103;52.076;113.488;2023-07-31T14:38:46;11.63;;;8.85;;
60241;SDS011;46103;52.076;113.488;2023-07-31T14:41:53;9.80;;;8.27;;
60241;SDS011;46103;52.076;113.488;2023-07-31T14:44:58;11.73;;;8.88;;
60241;SDS011;46103;52.076;113.488;2023-07-31T14:48:05;14.50;;;9.05;;
60241;SDS011;46103;52.076;113.488;2023-07-31T14:51:10;14.93;;;9.65;;
60241;SDS011;46103;52.076;113.488;2023-07-31T14:54:16;13.95;;;10.07;;
60241;SDS011;46103;52.076;113.488;2023-07-31T14:57:19;11.90;;;10.18;;
60241;SDS011;46103;52.076;113.488;2023-07-31T15:00:25;10.90;;;8.07;;
60241;SDS011;46103;52.076;113.488;2023-07-31T15:03:29;11.63;;;9.18;;
60241;SDS011;46103;52.076;113.488;2023-07-31T15:06:33;11.38;;;8.32;;
60241;SDS011;46103;52.076;113.488;2023-07-31T15:09:37;11.75;;;8.65;;
60241;SDS011;46103;52.076;113.488;2023-07-31T15:12:40;13.57;;;9.68;;
60241;SDS011;46103;52.076;113.488;2023-07-31T15:15:46;12.18;;;8.80;;
60241;SDS011;46103;52.076;113.488;2023-07-31T15:18:49;16.77;;;9.15;;
60241;SDS011;46103;52.076;113.488;2023-07-31T15:21:53;13.70;;;11.40;;
60241;SDS011;46103;52.076;113.488;2023-07-31T15:24:57;12.52;;;8.85;;
60241;SDS011;46103;52.076;113.488;2023-07-31T15:28:01;13.18;;;8.70;;
60241;SDS011;46103;52.076;113.488;2023-07-31T15:31:04;10.02;;;8.20;;
60241;SDS011;46103;52.076;113.488;2023-07-31T15:34:08;11.82;;;9.02;;
60241;SDS011;46103;52.076;113.488;2023-07-31T15:37:11;11.75;;;8.35;;
60241;SDS011;46103;52.076;113.488;2023-07-31T15:40:15;12.75;;;8.27;;
60241;SDS011;46103;52.076;113.488;2023-07-31T15:43:19;12.10;;;8.30;;
60241;SDS011;46103;52.076;113.488;2023-07-31T15:46:24;10.77;;;8.52;;
60241;SDS011;46103;52.076;113.488;2023-07-31T15:49:28;10.95;;;8.23;;
60241;SDS011;46103;52.076;113.488;2023-07-31T15:52:32;10.40;;;8.00;;
60241;SDS011;46103;52.076;113.488;2023-07-31T15:55:35;12.45;;;8.35;;
60241;SDS011;46103;52.076;113.488;2023-07-31T15:58:39;10.48;;;7.88;;
60241;SDS011;46103;52.076;113.488;2023-07-31T16:01:43;9.70;;;8.05;;
60241;SDS011;46103;52.076;113.488;2023-07-31T16:04:47;11.90;;;7.97;;
60241;SDS011;46103;52.076;113.488;2023-07-31T16:07:50;13.80;;;8.77;;
60241;SDS011;46103;52.076;113.488;2023-07-31T16:10:54;11.10;;;8.30;;
60241;SDS011;46103;52.076;113.488;2023-07-31T16:13:58;13.60;;;9.07;;
60241;SDS011;46103;52.076;113.488;2023-07-31T16:17:02;14.00;;;9.85;;
60241;SDS011;46103;52.076;113.488;2023-07-31T16:20:06;11.23;;;9.00;;
60241;SDS011;46103;52.076;113.488;2023-07-31T16:23:10;14.70;;;9.48;;
60241;SDS011;46103;52.076;113.488;2023-07-31T16:26:14;13.35;;;9.52;;
60241;SDS011;46103;52.076;113.488;2023-07-31T16:29:20;12.73;;;8.77;;
60241;SDS011;46103;52.076;113.488;2023-07-31T16:32:24;13.60;;;8.98;;
60241;SDS011;46103;52.076;113.488;2023-07-31T16:35:28;10.02;;;8.15;;
60241;SDS011;46103;52.076;113.488;2023-07-31T16:38:32;10.27;;;8.48;;
60241;SDS011;46103;52.076;113.488;2023-07-31T16:41:35;13.35;;;8.85;;
60241;SDS011;46103;52.076;113.488;2023-07-31T16:44:40;12.18;;;9.60;;
60241;SDS011;46103;52.076;113.488;2023-07-31T16:47:43;11.88;;;9.18;;
60241;SDS011;46103;52.076;113.488;2023-07-31T16:50:47;10.50;;;8.95;;
60241;SDS011;46103;52.076;113.488;2023-07-31T16:53:50;13.05;;;10.02;;
60241;SDS011;46103;52.076;113.488;2023-07-31T16:56:53;11.20;;;9.05;;
60241;SDS011;46103;52.076;113.488;2023-07-31T17:00:02;14.52;;;10.18;;
60241;SDS011;46103;52.076;113.488;2023-07-31T17:03:06;13.70;;;9.23;;
60241;SDS011;46103;52.076;113.488;2023-07-31T17:06:10;13.07;;;9.70;;
60241;SDS011;46103;52.076;113.488;2023-07-31T17:09:14;12.07;;;9.82;;
60241;SDS011;46103;52.076;113.488;2023-07-31T17:12:18;12.73;;;9.52;;
60241;SDS011;46103;52.076;113.488;2023-07-31T17:15:22;12.25;;;8.60;;
60241;SDS011;46103;52.076;113.488;2023-07-31T17:18:25;14.35;;;10.23;;
60241;SDS011;46103;52.076;113.488;2023-07-31T17:21:29;13.73;;;9.95;;
60241;SDS011;46103;52.076;113.488;2023-07-31T17:24:33;13.05;;;8.43;;
60241;SDS011;46103;52.076;113.488;2023-07-31T17:27:37;11.90;;;9.30;;
60241;SDS011;46103;52.076;113.488;2023-07-31T17:30:41;14.32;;;9.45;;
60241;SDS011;46103;52.076;113.488;2023-07-31T17:33:44;11.95;;;9.82;;
60241;SDS011;46103;52.076;113.488;2023-07-31T17:36:49;14.15;;;10.75;;
60241;SDS011;46103;52.076;113.488;2023-07-31T17:39:52;11.88;;;9.55;;
60241;SDS011;46103;52.076;113.488;2023-07-31T17:42:55;13.73;;;9.73;;
60241;SDS011;46103;52.076;113.488;2023-07-31T17:45:59;11.10;;;8.68;;
60241;SDS011;46103;52.076;113.488;2023-07-31T17:49:05;15.90;;;10.23;;
60241;SDS011;46103;52.076;113.488;2023-07-31T17:52:09;12.55;;;8.98;;
60241;SDS011;46103;52.076;113.488;2023-07-31T17:55:13;12.23;;;9.52;;
60241;SDS011;46103;52.076;113.488;2023-07-31T17:58:17;13.07;;;10.32;;
60241;SDS011;46103;52.076;113.488;2023-07-31T18:01:21;13.55;;;9.70;;
60241;SDS011;46103;52.076;113.488;2023-07-31T18:04:24;14.18;;;9.93;;
60241;SDS011;46103;52.076;113.488;2023-07-31T18:07:29;13.38;;;9.50;;
60241;SDS011;46103;52.076;113.488;2023-07-31T18:10:32;11.77;;;9.20;;
60241;SDS011;46103;52.076;113.488;2023-07-31T18:13:36;13.45;;;9.35;;
60241;SDS011;46103;52.076;113.488;2023-07-31T18:16:39;12.98;;;9.50;;
60241;SDS011;46103;52.076;113.488;2023-07-31T18:19:43;11.73;;;9.65;;
60241;SDS011;46103;52.076;113.488;2023-07-31T18:22:48;17.63;;;10.82;;
60241;SDS011;46103;52.076;113.488;2023-07-31T18:25:51;11.10;;;9.32;;
60241;SDS011;46103;52.076;113.488;2023-07-31T18:28:54;14.15;;;9.60;;